Portada
METAR-TAF:

METAR-TAF

Aeropuertos :

Aeropuerto Internacional Jinnah

Karachi, Pakistán

latitud: 24-54N, longitud: 067-08E, altitud: 21 m

Observación

El informe se hizo hace 24 minutos, a las 08:55 UTC
Viento 10 kt del noreste
Temperatura 34°C
Humedad 15%
Presión 1014 hPa
Visibilidad: 6000 m

METAR: OPKC 190855Z 04010KT 6000 NSC 34/04 Q1014 NOSIG

Hora: 14:19 (09:19 UTC)

Pronóstico

El informe se hizo hace 2 horas y 49 minutos, a las 06:30 UTC
Pronóstico válido del 19 a las 09 UTC al 19 a las 18 UTC
Viento 5 kt del este-noreste con ráfagas de 15 kt
Visibilidad: 6000 m

TAF: OPKC 190630Z 1909/1918 07005G15KT 6000 NSC

Observaciones y pronósticos meteorológicos de más de 4000 aeropuertos (mensajes METAR y TAF).

Los puntos amarillos y rojos representan las estaciones disponibles.

Ponga el ratón en el punto deseado para ver el nombre de la estación.

Haga clic para ver las observaciones y los pronósticos meteorológicos.

Para cambiar el mapa : haga clic en los botones verdes con una cruz de color negro para hacer un zoom, en el botón verde con un guión para alejar o en las flechas verdes para mapas adyacentes.


METAR-TAF: